Time;durP1;ratioP1;P1;durP2;ratioP2;P2;SDS_P1;SDS_P2;PMS_P1;PMS_P2;Temp;Humidity;BMP_temperature;BMP_pressure;BME280_temperature;BME280_humidity;BME280_pressure;Samples;Min_cycle;Max_cycle;Signal;HPM_P1;HPM_P2
2023/03/20 00:01:18;;;;;;;43.00;38.90;;;;;;;;;;5058136;28;20445;-82
2023/03/20 00:03:45;;;;;;;41.60;38.10;;;;;;;;;;5059115;28;20449;-82
2023/03/20 00:06:15;;;;;;;44.70;40.30;;;;;;;;;;5057698;28;20477;-82
2023/03/20 00:08:44;;;;;;;40.73;36.87;;;;;;;;;;5059319;28;20473;-83
2023/03/20 00:11:16;;;;;;;42.93;36.70;;;;;;;;;;5058079;28;20494;-82
2023/03/20 00:13:44;;;;;;;42.23;37.90;;;;;;;;;;5058418;28;20833;-82
2023/03/20 00:16:11;;;;;;;41.97;37.70;;;;;;;;;;5057674;28;20490;-82
2023/03/20 00:18:38;;;;;;;44.30;39.60;;;;;;;;;;5057941;28;20449;-81
2023/03/20 00:21:05;;;;;;;47.13;41.90;;;;;;;;;;5057777;28;20962;-82
2023/03/20 00:23:32;;;;;;;42.93;38.40;;;;;;;;;;5057981;28;20541;-80
2023/03/20 00:26:00;;;;;;;43.60;39.10;;;;;;;;;;5057638;28;20435;-80
2023/03/20 00:28:40;;;;;;;39.80;34.03;;;;;;;;;;5057801;28;20449;-80
2023/03/20 00:31:15;;;;;;;37.93;31.97;;;;;;;;;;5057343;28;20470;-80
2023/03/20 00:33:42;;;;;;;35.53;32.10;;;;;;;;;;5057861;28;20454;-80
2023/03/20 00:36:09;;;;;;;37.80;33.57;;;;;;;;;;5057280;28;20478;-80
2023/03/20 00:38:36;;;;;;;38.93;35.10;;;;;;;;;;5057227;28;20463;-80
2023/03/20 00:41:04;;;;;;;34.63;31.83;;;;;;;;;;5057340;28;20461;-81
2023/03/20 00:43:31;;;;;;;37.20;33.83;;;;;;;;;;5057715;28;20459;-81
2023/03/20 00:45:58;;;;;;;38.57;34.77;;;;;;;;;;5057219;28;20453;-80
2023/03/20 00:48:26;;;;;;;39.40;35.70;;;;;;;;;;5057335;28;20470;-81
2023/03/20 00:50:53;;;;;;;39.67;35.80;;;;;;;;;;5057340;28;20451;-81
2023/03/20 00:53:20;;;;;;;38.37;34.13;;;;;;;;;;5056799;28;20525;-81
2023/03/20 00:55:47;;;;;;;42.80;32.47;;;;;;;;;;5056858;28;20482;-80
2023/03/20 00:58:14;;;;;;;39.13;35.47;;;;;;;;;;5059022;28;20443;-80
2023/03/20 01:00:42;;;;;;;38.17;34.40;;;;;;;;;;5072133;28;20465;-80
2023/03/20 01:03:14;;;;;;;35.87;32.60;;;;;;;;;;5071453;28;20545;-80
2023/03/20 01:05:42;;;;;;;40.42;36.40;;;;;;;;;;5063634;28;20767;-80
2023/03/20 01:08:13;;;;;;;41.33;37.43;;;;;;;;;;5057872;28;20228;-80
2023/03/20 01:10:41;;;;;;;40.07;35.87;;;;;;;;;;5058259;28;20449;-81
2023/03/20 01:13:14;;;;;;;41.40;37.33;;;;;;;;;;5057544;28;20484;-81
2023/03/20 01:15:41;;;;;;;37.03;33.13;;;;;;;;;;5056979;28;20478;-81
2023/03/20 01:18:10;;;;;;;38.40;34.60;;;;;;;;;;5056920;28;20474;-81
2023/03/20 01:20:38;;;;;;;36.03;32.73;;;;;;;;;;5057291;28;20439;-81
2023/03/20 01:23:06;;;;;;;39.43;35.77;;;;;;;;;;5057053;28;20454;-81
2023/03/20 01:25:33;;;;;;;38.67;34.63;;;;;;;;;;5056321;28;20962;-81
2023/03/20 01:28:00;;;;;;;39.50;35.20;;;;;;;;;;5056301;28;20440;-80
2023/03/20 01:30:28;;;;;;;37.60;33.70;;;;;;;;;;5056319;28;20419;-80
2023/03/20 01:32:56;;;;;;;42.93;34.70;;;;;;;;;;5056591;28;20475;-80
2023/03/20 01:35:24;;;;;;;39.97;36.20;;;;;;;;;;5056688;28;20532;-80
2023/03/20 01:37:52;;;;;;;38.97;34.97;;;;;;;;;;5055913;28;20467;-80
2023/03/20 01:40:32;;;;;;;43.30;35.60;;;;;;;;;;5055960;28;20509;-80
2023/03/20 01:42:59;;;;;;;39.33;35.57;;;;;;;;;;5056139;28;20774;-80
2023/03/20 01:45:28;;;;;;;38.43;34.40;;;;;;;;;;5055245;28;20450;-81
2023/03/20 01:47:57;;;;;;;40.27;36.40;;;;;;;;;;5056148;28;20857;-81
2023/03/20 01:50:26;;;;;;;39.83;35.60;;;;;;;;;;5055736;28;20484;-80
2023/03/20 01:52:55;;;;;;;42.37;38.07;;;;;;;;;;5056357;28;20533;-80
2023/03/20 01:55:22;;;;;;;47.83;37.43;;;;;;;;;;5056035;28;20464;-80
2023/03/20 01:57:52;;;;;;;42.37;37.80;;;;;;;;;;5055331;28;20466;-80
2023/03/20 02:00:20;;;;;;;47.67;38.97;;;;;;;;;;5055211;28;20480;-80
2023/03/20 02:02:47;;;;;;;42.90;38.20;;;;;;;;;;5056292;28;20558;-80
2023/03/20 02:05:16;;;;;;;44.80;39.57;;;;;;;;;;5056232;28;20497;-81
2023/03/20 02:07:46;;;;;;;48.23;39.80;;;;;;;;;;5055005;28;20957;-80
2023/03/20 02:10:15;;;;;;;44.93;39.77;;;;;;;;;;5055455;28;20875;-80
2023/03/20 02:12:42;;;;;;;50.23;39.60;;;;;;;;;;5055558;28;20471;-80
2023/03/20 02:15:12;;;;;;;45.37;39.73;;;;;;;;;;5055998;28;20442;-80
2023/03/20 02:17:39;;;;;;;48.27;39.27;;;;;;;;;;5055210;28;20425;-81
2023/03/20 02:20:12;;;;;;;42.03;37.53;;;;;;;;;;5055545;28;20524;-81
2023/03/20 02:22:49;;;;;;;45.50;38.20;;;;;;;;;;5056173;28;20435;-81
2023/03/20 02:25:32;;;;;;;46.43;39.93;;;;;;;;;;5056287;28;20772;-80
2023/03/20 02:28:10;;;;;;;44.23;39.47;;;;;;;;;;5056100;28;20468;-80
2023/03/20 02:30:48;;;;;;;50.13;39.20;;;;;;;;;;5054976;28;20470;-80
2023/03/20 02:33:33;;;;;;;50.30;40.73;;;;;;;;;;5055819;28;20415;-80
2023/03/20 02:36:11;;;;;;;44.63;39.83;;;;;;;;;;5054817;28;20478;-80
2023/03/20 02:38:53;;;;;;;45.87;40.00;;;;;;;;;;5055172;28;20445;-80
2023/03/20 02:41:24;;;;;;;51.00;41.30;;;;;;;;;;5055171;28;20433;-80
2023/03/20 02:43:57;;;;;;;48.30;38.73;;;;;;;;;;5055650;28;20458;-80
2023/03/20 02:46:29;;;;;;;48.80;41.10;;;;;;;;;;5055593;28;20435;-82
2023/03/20 02:48:58;;;;;;;49.03;38.53;;;;;;;;;;5055747;28;20898;-82
2023/03/20 02:51:30;;;;;;;43.27;38.57;;;;;;;;;;5055204;28;20445;-82
2023/03/20 02:54:01;;;;;;;51.50;38.10;;;;;;;;;;5055436;28;20468;-82
2023/03/20 02:56:32;;;;;;;49.63;39.77;;;;;;;;;;5057612;28;20966;-82
2023/03/20 02:59:03;;;;;;;47.57;40.17;;;;;;;;;;5060002;28;20470;-82
2023/03/20 03:01:32;;;;;;;55.40;39.93;;;;;;;;;;5059359;28;20470;-82
2023/03/20 03:04:01;;;;;;;48.30;39.53;;;;;;;;;;5059402;28;20445;-82
2023/03/20 03:06:30;;;;;;;54.03;41.07;;;;;;;;;;5058636;28;20446;-82
2023/03/20 03:09:01;;;;;;;50.90;41.23;;;;;;;;;;5060831;28;20459;-82
2023/03/20 03:11:29;;;;;;;48.80;38.13;;;;;;;;;;5058360;28;20501;-82
2023/03/20 03:13:57;;;;;;;49.17;39.20;;;;;;;;;;5059134;28;20425;-82
2023/03/20 03:16:26;;;;;;;52.23;41.53;;;;;;;;;;5058543;28;20481;-82
2023/03/20 03:19:02;;;;;;;50.93;39.17;;;;;;;;;;5058771;28;20528;-82
2023/03/20 03:21:30;;;;;;;49.83;40.87;;;;;;;;;;5058488;28;20438;-82
2023/03/20 03:23:57;;;;;;;53.57;41.70;;;;;;;;;;5058810;28;20450;-82
2023/03/20 03:26:26;;;;;;;59.97;42.40;;;;;;;;;;5058800;28;20492;-81
2023/03/20 03:28:56;;;;;;;52.33;41.23;;;;;;;;;;5058407;28;20446;-82
2023/03/20 03:31:23;;;;;;;56.50;42.27;;;;;;;;;;5058587;28;20409;-82
2023/03/20 03:33:52;;;;;;;59.83;42.77;;;;;;;;;;5062414;28;20465;-82
2023/03/20 03:36:22;;;;;;;55.17;40.23;;;;;;;;;;5062229;28;20482;-82
2023/03/20 03:38:53;;;;;;;48.37;39.07;;;;;;;;;;5062400;28;20846;-82
2023/03/20 03:41:23;;;;;;;51.63;39.27;;;;;;;;;;5062467;28;20861;-82
2023/03/20 03:43:54;;;;;;;51.57;42.57;;;;;;;;;;5061237;28;20504;-82
2023/03/20 03:46:25;;;;;;;49.87;40.40;;;;;;;;;;5060924;28;20753;-82
2023/03/20 03:48:54;;;;;;;50.80;40.70;;;;;;;;;;5060359;28;20544;-82
2023/03/20 03:51:23;;;;;;;57.87;42.40;;;;;;;;;;5060226;28;20857;-81
2023/03/20 03:53:54;;;;;;;35.53;31.90;;;;;;;;;;5060202;28;20860;-82
2023/03/20 03:56:24;;;;;;;62.00;46.10;;;;;;;;;;5059580;28;20442;-82
2023/03/20 03:58:53;;;;;;;54.20;42.83;;;;;;;;;;5059006;28;20460;-82
2023/03/20 04:01:21;;;;;;;56.57;44.17;;;;;;;;;;5058819;28;20454;-83
2023/03/20 04:03:51;;;;;;;66.03;46.50;;;;;;;;;;5058844;28;20433;-82
2023/03/20 04:06:19;;;;;;;55.73;43.90;;;;;;;;;;5058878;28;20435;-81
2023/03/20 04:08:46;;;;;;;57.70;46.20;;;;;;;;;;5057339;28;20461;-82
2023/03/20 04:11:15;;;;;;;55.20;44.33;;;;;;;;;;5058682;28;20446;-81
2023/03/20 04:13:42;;;;;;;52.20;40.93;;;;;;;;;;5058896;28;20453;-81
2023/03/20 04:16:11;;;;;;;47.10;41.13;;;;;;;;;;5057969;28;20475;-80
2023/03/20 04:18:38;;;;;;;52.87;42.70;;;;;;;;;;5057969;28;20487;-81
2023/03/20 04:21:07;;;;;;;53.80;40.97;;;;;;;;;;5058269;28;20410;-80
2023/03/20 04:23:34;;;;;;;56.57;44.20;;;;;;;;;;5057931;28;20451;-81
2023/03/20 04:26:01;;;;;;;45.40;39.93;;;;;;;;;;5057421;28;20443;-80
2023/03/20 04:28:29;;;;;;;52.33;42.13;;;;;;;;;;5057790;28;20502;-80
2023/03/20 04:30:57;;;;;;;47.57;42.10;;;;;;;;;;5057363;28;20460;-80
2023/03/20 04:33:25;;;;;;;54.63;38.03;;;;;;;;;;5057533;28;20900;-80
2023/03/20 04:35:52;;;;;;;53.27;42.30;;;;;;;;;;5057138;28;20446;-81
2023/03/20 04:38:21;;;;;;;53.80;40.13;;;;;;;;;;5057556;28;20812;-80
2023/03/20 04:40:49;;;;;;;47.47;41.33;;;;;;;;;;5056748;28;20876;-80
2023/03/20 04:43:16;;;;;;;47.07;40.53;;;;;;;;;;5057453;28;20433;-80
2023/03/20 04:45:43;;;;;;;49.33;40.63;;;;;;;;;;5057003;28;20485;-81
2023/03/20 04:48:10;;;;;;;55.03;42.03;;;;;;;;;;5057021;28;20455;-80
2023/03/20 04:50:37;;;;;;;49.80;42.30;;;;;;;;;;5056612;28;20470;-80
2023/03/20 04:53:05;;;;;;;54.30;43.07;;;;;;;;;;5057495;28;20458;-80
2023/03/20 04:55:33;;;;;;;52.20;41.13;;;;;;;;;;5056998;28;20504;-82
2023/03/20 04:58:00;;;;;;;126.50;99.63;;;;;;;;;;5057129;28;20539;-81
2023/03/20 05:00:27;;;;;;;88.53;78.90;;;;;;;;;;5056579;28;20837;-80
2023/03/20 05:02:54;;;;;;;68.30;61.27;;;;;;;;;;5057332;28;20451;-80
2023/03/20 05:05:22;;;;;;;53.60;45.07;;;;;;;;;;5057233;28;20832;-80
2023/03/20 05:07:50;;;;;;;48.50;43.00;;;;;;;;;;5056492;28;20961;-80
2023/03/20 05:10:17;;;;;;;49.60;40.97;;;;;;;;;;5056274;28;20448;-80
2023/03/20 05:12:45;;;;;;;49.33;38.37;;;;;;;;;;5056986;28;20457;-80
2023/03/20 05:15:12;;;;;;;55.13;42.57;;;;;;;;;;5056617;28;20421;-80
2023/03/20 05:17:39;;;;;;;47.93;41.33;;;;;;;;;;5055909;28;20565;-81
2023/03/20 05:20:07;;;;;;;49.50;40.60;;;;;;;;;;5054863;28;20489;-80
2023/03/20 05:22:34;;;;;;;48.97;40.77;;;;;;;;;;5056673;28;20431;-80
2023/03/20 05:25:01;;;;;;;52.70;41.70;;;;;;;;;;5056492;28;20421;-81
2023/03/20 05:27:28;;;;;;;50.67;42.60;;;;;;;;;;5056440;28;20511;-80
2023/03/20 05:29:56;;;;;;;46.47;40.67;;;;;;;;;;5072143;28;20421;-80
2023/03/20 05:32:23;;;;;;;48.00;40.33;;;;;;;;;;5072841;28;20405;-80
2023/03/20 05:34:50;;;;;;;50.33;40.40;;;;;;;;;;5065822;28;20428;-81
2023/03/20 05:37:17;;;;;;;51.10;40.80;;;;;;;;;;5056767;28;20507;-81
2023/03/20 05:39:45;;;;;;;44.20;37.50;;;;;;;;;;5056196;28;20520;-79
2023/03/20 05:42:12;;;;;;;47.90;38.50;;;;;;;;;;5055985;28;20561;-81
2023/03/20 05:44:39;;;;;;;44.67;37.10;;;;;;;;;;5056447;28;20459;-78
2023/03/20 05:47:08;;;;;;;42.43;37.10;;;;;;;;;;5054269;28;20476;-78
2023/03/20 05:49:35;;;;;;;50.47;41.73;;;;;;;;;;5059501;28;20508;-78
2023/03/20 05:52:02;;;;;;;42.47;37.97;;;;;;;;;;5075051;28;20443;-79
2023/03/20 05:54:30;;;;;;;49.33;40.40;;;;;;;;;;5075328;28;20453;-78
2023/03/20 05:56:57;;;;;;;47.30;38.57;;;;;;;;;;5074316;28;20460;-79
2023/03/20 05:59:24;;;;;;;42.43;36.37;;;;;;;;;;5074619;28;20465;-78
2023/03/20 06:01:51;;;;;;;37.50;33.60;;;;;;;;;;5074450;28;20502;-78
2023/03/20 06:04:19;;;;;;;43.97;39.33;;;;;;;;;;5074731;28;20783;-78
2023/03/20 06:06:46;;;;;;;34.30;30.90;;;;;;;;;;5074160;28;20441;-78
2023/03/20 06:09:13;;;;;;;46.33;38.13;;;;;;;;;;5074226;28;20519;-78
2023/03/20 06:11:40;;;;;;;42.83;38.13;;;;;;;;;;5074037;28;20478;-78
2023/03/20 06:14:07;;;;;;;41.77;34.40;;;;;;;;;;5074387;28;20449;-79
2023/03/20 06:16:34;;;;;;;43.33;38.40;;;;;;;;;;5073559;28;20993;-78
2023/03/20 06:19:01;;;;;;;43.50;35.77;;;;;;;;;;5074186;28;20490;-78
2023/03/20 06:21:29;;;;;;;43.90;38.27;;;;;;;;;;5073998;28;20480;-78
2023/03/20 06:23:58;;;;;;;46.90;38.00;;;;;;;;;;5074644;28;20747;-78
2023/03/20 06:26:25;;;;;;;46.60;37.53;;;;;;;;;;5074067;28;20449;-79
2023/03/20 06:28:52;;;;;;;47.07;37.80;;;;;;;;;;5075009;28;20466;-79
2023/03/20 06:31:20;;;;;;;47.93;37.60;;;;;;;;;;5074532;28;20429;-79
2023/03/20 06:33:47;;;;;;;47.47;38.83;;;;;;;;;;5074440;28;20461;-79
2023/03/20 06:36:14;;;;;;;43.83;37.77;;;;;;;;;;5074669;28;20452;-79
2023/03/20 06:38:42;;;;;;;40.30;35.80;;;;;;;;;;5075388;28;20493;-79
2023/03/20 06:41:10;;;;;;;38.53;32.93;;;;;;;;;;5075341;28;20416;-79
2023/03/20 06:43:38;;;;;;;37.87;31.77;;;;;;;;;;5075189;28;20472;-79
2023/03/20 06:46:05;;;;;;;43.73;36.23;;;;;;;;;;5074863;28;20452;-79
2023/03/20 06:48:32;;;;;;;45.80;38.00;;;;;;;;;;5074422;28;20489;-79
2023/03/20 06:50:59;;;;;;;44.97;38.20;;;;;;;;;;5074561;28;20836;-80
2023/03/20 06:53:26;;;;;;;42.10;34.53;;;;;;;;;;5075094;28;20499;-79
2023/03/20 06:55:55;;;;;;;44.43;35.67;;;;;;;;;;5074726;28;20427;-79
2023/03/20 06:58:22;;;;;;;43.57;37.67;;;;;;;;;;5074407;28;20517;-79
2023/03/20 07:00:49;;;;;;;37.67;31.93;;;;;;;;;;5075096;28;20761;-79
2023/03/20 07:03:16;;;;;;;47.93;37.57;;;;;;;;;;5074565;28;20449;-79
2023/03/20 07:05:43;;;;;;;40.27;34.30;;;;;;;;;;5074285;28;20540;-79
2023/03/20 07:08:10;;;;;;;48.80;37.80;;;;;;;;;;5074634;28;20465;-79
2023/03/20 07:10:37;;;;;;;45.37;38.80;;;;;;;;;;5074902;28;20462;-79
2023/03/20 07:13:06;;;;;;;50.93;39.40;;;;;;;;;;5074813;28;20492;-79
2023/03/20 07:15:33;;;;;;;47.03;39.77;;;;;;;;;;5073966;28;20472;-79
2023/03/20 07:18:00;;;;;;;41.30;36.50;;;;;;;;;;5074566;28;20458;-79
2023/03/20 07:20:27;;;;;;;45.90;38.80;;;;;;;;;;5074757;28;20469;-79
2023/03/20 07:22:55;;;;;;;45.03;38.13;;;;;;;;;;5075015;28;20856;-79
2023/03/20 07:25:22;;;;;;;42.07;36.30;;;;;;;;;;5074944;28;20941;-79
2023/03/20 07:27:50;;;;;;;40.47;35.90;;;;;;;;;;5074319;28;20465;-80
2023/03/20 07:30:18;;;;;;;39.07;34.97;;;;;;;;;;5074566;28;20466;-80
2023/03/20 07:32:47;;;;;;;36.87;32.50;;;;;;;;;;5074773;28;20981;-79
2023/03/20 07:35:14;;;;;;;38.27;34.17;;;;;;;;;;5075068;28;20457;-80
2023/03/20 07:37:41;;;;;;;32.90;30.10;;;;;;;;;;5074218;28;20519;-79
2023/03/20 07:40:09;;;;;;;33.07;29.57;;;;;;;;;;5073925;28;20475;-79
2023/03/20 07:42:36;;;;;;;31.77;28.60;;;;;;;;;;5076176;28;20490;-79
2023/03/20 07:45:03;;;;;;;32.10;28.90;;;;;;;;;;5078726;28;20582;-80
2023/03/20 07:47:31;;;;;;;33.33;30.07;;;;;;;;;;5081405;28;20483;-80
2023/03/20 07:49:58;;;;;;;33.00;29.77;;;;;;;;;;5082416;28;20440;-81
2023/03/20 07:52:25;;;;;;;32.83;30.00;;;;;;;;;;5081691;28;20472;-80
2023/03/20 07:54:52;;;;;;;33.90;30.70;;;;;;;;;;5081872;28;20449;-80
2023/03/20 07:57:19;;;;;;;31.13;28.40;;;;;;;;;;5080506;28;20485;-79
2023/03/20 07:59:46;;;;;;;32.00;29.00;;;;;;;;;;5081095;28;20966;-80
2023/03/20 08:02:15;;;;;;;32.90;29.80;;;;;;;;;;5080237;28;20829;-79
2023/03/20 08:04:43;;;;;;;31.40;28.40;;;;;;;;;;5080587;28;20797;-79
2023/03/20 08:07:10;;;;;;;32.53;29.60;;;;;;;;;;5078923;28;20902;-79
2023/03/20 08:09:37;;;;;;;29.40;26.70;;;;;;;;;;5066832;28;20441;-79
2023/03/20 08:12:04;;;;;;;27.80;25.40;;;;;;;;;;5058216;28;20443;-79
2023/03/20 08:14:31;;;;;;;31.07;28.37;;;;;;;;;;5058503;28;20969;-80
2023/03/20 08:16:58;;;;;;;31.73;28.80;;;;;;;;;;5057957;28;20425;-79
2023/03/20 08:19:27;;;;;;;30.00;27.40;;;;;;;;;;5058134;28;20949;-83
2023/03/20 08:21:55;;;;;;;33.97;30.80;;;;;;;;;;5058767;28;20474;-79
2023/03/20 08:24:22;;;;;;;32.33;29.53;;;;;;;;;;5058366;28;20823;-79
2023/03/20 08:26:49;;;;;;;26.17;24.23;;;;;;;;;;5058486;28;20471;-79
2023/03/20 08:29:18;;;;;;;29.50;26.90;;;;;;;;;;5061370;28;20485;-80
2023/03/20 08:31:45;;;;;;;35.33;32.07;;;;;;;;;;5062729;28;20450;-79
2023/03/20 08:34:12;;;;;;;33.63;30.40;;;;;;;;;;5062317;28;20480;-80
2023/03/20 08:36:39;;;;;;;33.03;29.97;;;;;;;;;;5057638;28;20455;-80
2023/03/20 08:39:08;;;;;;;33.27;30.27;;;;;;;;;;5056593;28;20461;-80
2023/03/20 08:41:34;;;;;;;33.27;30.47;;;;;;;;;;5057137;28;20492;-79
2023/03/20 08:44:02;;;;;;;29.37;26.90;;;;;;;;;;5057524;28;20451;-79
2023/03/20 08:46:29;;;;;;;28.07;25.67;;;;;;;;;;5056803;28;20453;-81
2023/03/20 08:48:57;;;;;;;30.70;28.10;;;;;;;;;;5056640;28;20823;-80
2023/03/20 08:51:24;;;;;;;34.10;30.53;;;;;;;;;;5057491;28;20488;-80
2023/03/20 08:53:51;;;;;;;28.73;26.10;;;;;;;;;;5056949;28;20463;-80
2023/03/20 08:56:20;;;;;;;27.43;24.73;;;;;;;;;;5056951;28;20429;-80
2023/03/20 08:58:47;;;;;;;30.60;28.10;;;;;;;;;;5056828;28;20465;-80
2023/03/20 09:01:15;;;;;;;30.87;28.43;;;;;;;;;;5057058;28;20475;-80
2023/03/20 09:03:42;;;;;;;28.20;25.97;;;;;;;;;;5056854;28;20453;-80
2023/03/20 09:06:09;;;;;;;30.07;27.53;;;;;;;;;;5056251;28;20446;-80
2023/03/20 09:08:36;;;;;;;32.27;29.57;;;;;;;;;;5057327;28;20937;-82
2023/03/20 09:11:04;;;;;;;32.93;30.03;;;;;;;;;;5056355;28;20495;-79
2023/03/20 09:13:32;;;;;;;32.77;29.87;;;;;;;;;;5056423;28;20433;-79
2023/03/20 09:15:59;;;;;;;30.07;27.33;;;;;;;;;;5056219;28;20421;-80
2023/03/20 09:18:26;;;;;;;28.60;26.30;;;;;;;;;;5055578;28;20465;-79
2023/03/20 09:20:55;;;;;;;34.83;31.83;;;;;;;;;;5055953;28;20444;-80
2023/03/20 09:23:22;;;;;;;30.87;28.17;;;;;;;;;;5056051;28;20544;-78
2023/03/20 09:25:49;;;;;;;33.27;30.10;;;;;;;;;;5055271;28;21043;-79
2023/03/20 09:28:16;;;;;;;35.27;31.77;;;;;;;;;;5056022;28;20477;-80
2023/03/20 09:30:44;;;;;;;31.43;28.83;;;;;;;;;;5056195;28;20852;-79
2023/03/20 09:33:13;;;;;;;27.23;24.83;;;;;;;;;;5056597;28;20533;-79
2023/03/20 09:35:40;;;;;;;33.30;30.40;;;;;;;;;;5055036;28;20429;-80
2023/03/20 09:38:08;;;;;;;30.80;28.20;;;;;;;;;;5056320;28;20498;-81
2023/03/20 09:40:38;;;;;;;36.10;32.77;;;;;;;;;;5056167;28;20480;-80
2023/03/20 09:43:10;;;;;;;36.63;33.47;;;;;;;;;;5056154;28;20457;-79
2023/03/20 09:45:44;;;;;;;26.63;24.83;;;;;;;;;;5055365;28;20443;-80
2023/03/20 09:48:16;;;;;;;35.30;32.20;;;;;;;;;;5057583;28;20513;-80
2023/03/20 09:50:47;;;;;;;29.60;26.90;;;;;;;;;;5055985;28;20405;-79
2023/03/20 09:53:18;;;;;;;28.03;25.53;;;;;;;;;;5056421;28;20463;-79
2023/03/20 09:55:45;;;;;;;34.47;30.87;;;;;;;;;;5055377;28;20516;-80
2023/03/20 09:58:13;;;;;;;33.87;31.23;;;;;;;;;;5055541;28;21039;-80
2023/03/20 10:00:43;;;;;;;32.63;29.93;;;;;;;;;;5066735;28;20439;-79
2023/03/20 10:03:17;;;;;;;31.67;29.07;;;;;;;;;;5073662;28;20447;-79
2023/03/20 10:05:45;;;;;;;33.77;30.83;;;;;;;;;;5071930;28;20515;-79
2023/03/20 10:08:15;;;;;;;33.53;30.93;;;;;;;;;;5056654;28;20471;-82
2023/03/20 10:10:46;;;;;;;32.80;30.30;;;;;;;;;;5056062;28;20429;-80
2023/03/20 10:13:26;;;;;;;32.50;29.70;;;;;;;;;;5056274;28;20461;-79
2023/03/20 10:15:56;;;;;;;25.90;23.93;;;;;;;;;;5055322;28;20532;-80
2023/03/20 10:18:25;;;;;;;30.50;28.20;;;;;;;;;;5055883;28;20482;-78
2023/03/20 10:20:55;;;;;;;29.10;27.10;;;;;;;;;;5056653;28;20458;-80
2023/03/20 10:23:26;;;;;;;26.63;24.90;;;;;;;;;;5056247;28;20534;-79
2023/03/20 10:25:56;;;;;;;25.00;23.30;;;;;;;;;;5056796;28;20435;-79
2023/03/20 10:28:27;;;;;;;31.23;29.07;;;;;;;;;;5055508;28;20478;-79
2023/03/20 10:31:01;;;;;;;29.27;26.90;;;;;;;;;;5055795;28;20405;-84
2023/03/20 10:33:38;;;;;;;30.03;27.40;;;;;;;;;;5056201;28;20443;-83
2023/03/20 10:36:10;;;;;;;27.33;25.43;;;;;;;;;;5054313;28;20405;-79
2023/03/20 10:38:40;;;;;;;26.97;24.87;;;;;;;;;;5054638;28;20490;-79
2023/03/20 10:41:10;;;;;;;25.13;23.40;;;;;;;;;;5054393;28;20486;-78
2023/03/20 10:43:38;;;;;;;26.23;24.30;;;;;;;;;;5054202;28;20466;-79
2023/03/20 10:46:07;;;;;;;25.40;23.50;;;;;;;;;;5054587;28;20429;-79
2023/03/20 10:48:37;;;;;;;24.27;22.67;;;;;;;;;;5053388;28;20986;-79
2023/03/20 10:51:05;;;;;;;22.77;21.47;;;;;;;;;;5054005;28;20413;-79
2023/03/20 10:53:35;;;;;;;25.57;23.33;;;;;;;;;;5054609;28;20528;-79
2023/03/20 10:56:05;;;;;;;28.87;26.77;;;;;;;;;;5054376;28;20418;-78
2023/03/20 10:58:34;;;;;;;26.63;24.57;;;;;;;;;;5054621;28;20457;-79
2023/03/20 11:01:02;;;;;;;27.47;25.37;;;;;;;;;;5054338;28;20425;-79
2023/03/20 11:03:30;;;;;;;27.50;25.53;;;;;;;;;;5054339;28;20466;-79
2023/03/20 11:06:00;;;;;;;24.40;22.73;;;;;;;;;;5054431;28;20433;-79
2023/03/20 11:08:31;;;;;;;27.40;25.30;;;;;;;;;;5054927;28;20924;-79
2023/03/20 11:10:59;;;;;;;25.70;23.93;;;;;;;;;;5055366;28;20459;-79
2023/03/20 11:13:28;;;;;;;29.77;27.53;;;;;;;;;;5054608;28;20429;-79
2023/03/20 11:15:55;;;;;;;28.70;26.47;;;;;;;;;;5054483;28;20500;-79
2023/03/20 11:18:25;;;;;;;26.63;24.53;;;;;;;;;;5057131;28;20462;-78
2023/03/20 11:20:53;;;;;;;28.00;25.80;;;;;;;;;;5058551;28;20976;-79
2023/03/20 11:23:25;;;;;;;26.60;24.60;;;;;;;;;;5058129;28;20930;-79
2023/03/20 11:25:53;;;;;;;28.90;26.47;;;;;;;;;;5057438;28;20440;-78
2023/03/20 11:28:21;;;;;;;26.60;24.90;;;;;;;;;;5056752;28;20433;-78
2023/03/20 11:30:50;;;;;;;26.10;24.27;;;;;;;;;;5058401;28;20435;-79
2023/03/20 11:33:17;;;;;;;29.73;27.43;;;;;;;;;;5058892;28;20429;-78
2023/03/20 11:35:48;;;;;;;26.80;24.67;;;;;;;;;;5057708;28;20448;-78
2023/03/20 11:38:16;;;;;;;30.30;28.00;;;;;;;;;;5057359;28;20520;-78
2023/03/20 11:40:46;;;;;;;31.63;29.23;;;;;;;;;;5057549;28;20890;-78
2023/03/20 11:43:14;;;;;;;30.77;28.17;;;;;;;;;;5057706;28;20447;-78
2023/03/20 11:45:42;;;;;;;28.93;26.63;;;;;;;;;;5057635;28;20441;-80
2023/03/20 11:48:15;;;;;;;29.07;26.57;;;;;;;;;;5057577;28;20869;-78
2023/03/20 11:50:44;;;;;;;31.77;28.70;;;;;;;;;;5057368;28;20401;-78
2023/03/20 11:53:20;;;;;;;30.40;28.20;;;;;;;;;;5057953;28;20421;-79
2023/03/20 11:55:58;;;;;;;26.20;24.40;;;;;;;;;;5057283;28;20480;-79
2023/03/20 11:58:26;;;;;;;30.37;27.87;;;;;;;;;;5057989;28;20514;-79
2023/03/20 12:00:55;;;;;;;26.57;24.80;;;;;;;;;;5057312;28;20516;-79
2023/03/20 12:03:40;;;;;;;29.40;27.30;;;;;;;;;;5057523;28;20425;-80
2023/03/20 12:06:08;;;;;;;30.33;28.10;;;;;;;;;;5057353;28;20416;-78
2023/03/20 12:08:37;;;;;;;31.60;28.90;;;;;;;;;;5055872;28;20487;-79
2023/03/20 12:11:09;;;;;;;28.60;26.50;;;;;;;;;;5056285;28;20430;-79
2023/03/20 12:13:41;;;;;;;26.70;24.60;;;;;;;;;;5056481;28;20865;-79
2023/03/20 12:16:12;;;;;;;25.13;23.63;;;;;;;;;;5056442;28;20409;-79
2023/03/20 12:18:42;;;;;;;27.50;25.43;;;;;;;;;;5056872;28;20486;-79
2023/03/20 12:21:12;;;;;;;29.17;26.87;;;;;;;;;;5056743;28;20422;-79
2023/03/20 12:23:42;;;;;;;27.70;25.47;;;;;;;;;;5056867;28;20495;-79
2023/03/20 12:26:12;;;;;;;27.03;24.90;;;;;;;;;;5056795;28;20429;-79
2023/03/20 12:28:43;;;;;;;24.10;22.50;;;;;;;;;;5055862;28;20453;-79
2023/03/20 12:31:21;;;;;;;28.27;26.27;;;;;;;;;;5056820;28;20446;-79
2023/03/20 12:33:50;;;;;;;24.40;22.80;;;;;;;;;;5056308;28;20426;-79
2023/03/20 12:36:18;;;;;;;27.67;25.77;;;;;;;;;;5055861;28;20931;-79
2023/03/20 12:38:46;;;;;;;26.30;24.53;;;;;;;;;;5056897;28;20474;-79
2023/03/20 12:41:16;;;;;;;24.17;22.67;;;;;;;;;;5057465;28;20520;-79
2023/03/20 12:43:47;;;;;;;28.30;26.27;;;;;;;;;;5056477;28;21008;-80
2023/03/20 12:46:20;;;;;;;26.90;25.07;;;;;;;;;;5058562;28;20420;-79
2023/03/20 12:48:52;;;;;;;26.50;24.50;;;;;;;;;;5058328;28;20441;-80
2023/03/20 12:51:23;;;;;;;28.70;26.60;;;;;;;;;;5057106;28;20406;-79
2023/03/20 12:53:55;;;;;;;28.90;26.77;;;;;;;;;;5057565;28;20518;-80
2023/03/20 12:56:31;;;;;;;28.57;26.37;;;;;;;;;;5057455;28;20429;-80
2023/03/20 12:59:01;;;;;;;28.63;26.73;;;;;;;;;;5055929;28;20465;-80
2023/03/20 13:01:31;;;;;;;27.33;25.53;;;;;;;;;;5056940;28;20492;-80
2023/03/20 13:04:12;;;;;;;27.57;25.57;;;;;;;;;;5056908;28;20909;-79
2023/03/20 13:06:43;;;;;;;26.90;25.03;;;;;;;;;;5056765;28;20432;-79
2023/03/20 13:09:28;;;;;;;28.13;26.37;;;;;;;;;;5056704;28;20536;-79
2023/03/20 13:11:59;;;;;;;28.73;26.60;;;;;;;;;;5056903;28;20508;-80
2023/03/20 13:14:32;;;;;;;28.97;27.03;;;;;;;;;;5057000;28;20402;-80
2023/03/20 13:17:03;;;;;;;29.90;27.90;;;;;;;;;;5056219;28;20505;-79
2023/03/20 13:19:34;;;;;;;27.80;26.00;;;;;;;;;;5056644;28;20487;-80
2023/03/20 13:22:04;;;;;;;27.10;25.40;;;;;;;;;;5061138;28;20445;-80
2023/03/20 13:24:38;;;;;;;27.40;25.40;;;;;;;;;;5064952;28;20410;-80
2023/03/20 13:27:16;;;;;;;25.57;23.87;;;;;;;;;;5061211;28;20436;-79
2023/03/20 13:29:48;;;;;;;28.33;26.07;;;;;;;;;;5055839;28;20779;-79
2023/03/20 13:32:21;;;;;;;26.03;24.43;;;;;;;;;;5055732;28;20816;-79
2023/03/20 13:34:53;;;;;;;26.30;24.70;;;;;;;;;;5055648;28;20410;-79
2023/03/20 13:37:24;;;;;;;27.30;25.30;;;;;;;;;;5056095;28;20437;-80
2023/03/20 13:39:57;;;;;;;26.63;24.90;;;;;;;;;;5054184;28;21031;-79
2023/03/20 13:42:30;;;;;;;31.00;28.63;;;;;;;;;;5055759;28;20429;-80
2023/03/20 13:45:00;;;;;;;28.70;26.57;;;;;;;;;;5056684;28;20460;-80
2023/03/20 13:47:28;;;;;;;26.77;25.10;;;;;;;;;;5055375;28;20418;-80
2023/03/20 13:49:59;;;;;;;28.27;26.20;;;;;;;;;;5055534;28;20488;-80
2023/03/20 13:52:29;;;;;;;27.77;25.20;;;;;;;;;;5055772;28;20965;-80
2023/03/20 13:55:12;;;;;;;28.83;26.90;;;;;;;;;;5055656;28;20545;-80
2023/03/20 13:57:48;;;;;;;25.13;23.40;;;;;;;;;;5055106;28;20414;-80
2023/03/20 14:00:20;;;;;;;28.27;26.27;;;;;;;;;;5056192;28;20478;-80
2023/03/20 14:02:56;;;;;;;22.60;21.17;;;;;;;;;;5055935;28;20507;-79
2023/03/20 14:05:25;;;;;;;24.70;23.10;;;;;;;;;;5056364;28;20478;-80
2023/03/20 14:07:55;;;;;;;23.10;21.67;;;;;;;;;;5055016;28;20502;-79
2023/03/20 14:10:36;;;;;;;25.67;23.77;;;;;;;;;;5054599;28;20442;-79
2023/03/20 14:13:06;;;;;;;25.93;24.23;;;;;;;;;;5055956;28;21030;-79
2023/03/20 14:15:34;;;;;;;26.93;24.80;;;;;;;;;;5055948;28;20427;-81
2023/03/20 14:18:04;;;;;;;26.00;24.30;;;;;;;;;;5055272;28;20508;-79
2023/03/20 14:20:33;;;;;;;24.77;23.17;;;;;;;;;;5054643;28;20490;-79
2023/03/20 14:23:00;;;;;;;23.97;22.37;;;;;;;;;;5054916;28;20935;-79
2023/03/20 14:25:28;;;;;;;23.57;21.97;;;;;;;;;;5055451;28;20492;-80
2023/03/20 14:27:56;;;;;;;24.73;22.80;;;;;;;;;;5054643;28;20475;-79